Cabildo, Argentina
Current Conditions -  °F | °C
As of 5:00 PM on Sunday 25 Jan 2015 (Local Time) from SAZM Reporting Station
Clear Clear  
Wind Chill: 81°   Ceiling: Unl
Heat Index: 81°   Visibility: 6mi
Dew Point: 50°   Wind: 14mph
Humidity: 34%   Direction: 200°SSW
Pressure: 29.83"   Gusts: NA
Location:  38.48°S, 61.9°W
Report Text: SAZM 252000Z 20012KT CAVOK 27/10 Q1010
Loading
Personal Weather Stations






























Interactive Weather Map New forecast layout! Learn more

10-Day Weather Forecast

Advertisements
Track Severe Weather on mobile